sensor_id;sensor_type;location;lat;lon;timestamp;P1;durP1;ratioP1;P2;durP2;ratioP2
22334;SDS011;11335;43.848;25.958;2023-07-13T00:02:30;20.38;;;14.32;;
22334;SDS011;11335;43.848;25.958;2023-07-13T00:05:15;19.70;;;14.38;;
22334;SDS011;11335;43.848;25.958;2023-07-13T00:08:01;19.25;;;14.20;;
22334;SDS011;11335;43.848;25.958;2023-07-13T00:10:47;23.45;;;14.80;;
22334;SDS011;11335;43.848;25.958;2023-07-13T00:13:34;18.13;;;14.65;;
22334;SDS011;11335;43.848;25.958;2023-07-13T00:16:19;16.05;;;13.98;;
22334;SDS011;11335;43.848;25.958;2023-07-13T00:19:05;18.83;;;14.13;;
22334;SDS011;11335;43.848;25.958;2023-07-13T00:21:51;20.02;;;14.00;;
22334;SDS011;11335;43.848;25.958;2023-07-13T00:24:41;23.27;;;13.88;;
22334;SDS011;11335;43.848;25.958;2023-07-13T00:27:29;17.55;;;14.30;;
22334;SDS011;11335;43.848;25.958;2023-07-13T00:30:17;20.13;;;14.52;;
22334;SDS011;11335;43.848;25.958;2023-07-13T00:33:03;20.20;;;14.63;;
22334;SDS011;11335;43.848;25.958;2023-07-13T00:35:49;25.23;;;17.27;;
22334;SDS011;11335;43.848;25.958;2023-07-13T00:38:35;28.13;;;17.73;;
22334;SDS011;11335;43.848;25.958;2023-07-13T00:41:21;26.30;;;18.20;;
22334;SDS011;11335;43.848;25.958;2023-07-13T00:44:10;27.75;;;17.52;;
22334;SDS011;11335;43.848;25.958;2023-07-13T00:46:59;23.58;;;16.40;;
22334;SDS011;11335;43.848;25.958;2023-07-13T00:49:45;24.00;;;15.95;;
22334;SDS011;11335;43.848;25.958;2023-07-13T00:52:31;21.67;;;14.98;;
22334;SDS011;11335;43.848;25.958;2023-07-13T00:55:16;21.65;;;14.70;;
22334;SDS011;11335;43.848;25.958;2023-07-13T00:58:03;20.02;;;14.30;;
22334;SDS011;11335;43.848;25.958;2023-07-13T01:00:50;21.98;;;14.93;;
22334;SDS011;11335;43.848;25.958;2023-07-13T01:03:36;19.45;;;13.90;;
22334;SDS011;11335;43.848;25.958;2023-07-13T01:06:23;20.17;;;14.85;;
22334;SDS011;11335;43.848;25.958;2023-07-13T01:09:09;20.00;;;15.05;;
22334;SDS011;11335;43.848;25.958;2023-07-13T01:11:56;23.65;;;14.23;;
22334;SDS011;11335;43.848;25.958;2023-07-13T01:14:42;17.98;;;14.50;;
22334;SDS011;11335;43.848;25.958;2023-07-13T01:17:28;21.33;;;14.57;;
22334;SDS011;11335;43.848;25.958;2023-07-13T01:20:14;20.88;;;14.48;;
22334;SDS011;11335;43.848;25.958;2023-07-13T01:23:00;18.55;;;13.63;;
22334;SDS011;11335;43.848;25.958;2023-07-13T01:25:46;20.25;;;13.95;;
22334;SDS011;11335;43.848;25.958;2023-07-13T01:28:32;19.75;;;14.68;;
22334;SDS011;11335;43.848;25.958;2023-07-13T01:31:22;18.48;;;14.75;;
22334;SDS011;11335;43.848;25.958;2023-07-13T01:34:07;21.02;;;14.57;;
22334;SDS011;11335;43.848;25.958;2023-07-13T01:36:53;20.50;;;15.50;;
22334;SDS011;11335;43.848;25.958;2023-07-13T01:39:39;19.00;;;15.50;;
22334;SDS011;11335;43.848;25.958;2023-07-13T01:42:25;20.23;;;15.73;;
22334;SDS011;11335;43.848;25.958;2023-07-13T01:45:10;20.85;;;14.80;;
22334;SDS011;11335;43.848;25.958;2023-07-13T01:47:56;17.63;;;14.82;;
22334;SDS011;11335;43.848;25.958;2023-07-13T01:50:43;18.63;;;15.25;;
22334;SDS011;11335;43.848;25.958;2023-07-13T01:53:29;21.40;;;15.73;;
22334;SDS011;11335;43.848;25.958;2023-07-13T01:56:14;18.73;;;16.10;;
22334;SDS011;11335;43.848;25.958;2023-07-13T01:59:00;23.48;;;16.20;;
22334;SDS011;11335;43.848;25.958;2023-07-13T02:01:46;26.73;;;16.38;;
22334;SDS011;11335;43.848;25.958;2023-07-13T02:04:31;24.95;;;17.55;;
22334;SDS011;11335;43.848;25.958;2023-07-13T02:07:17;23.67;;;16.33;;
22334;SDS011;11335;43.848;25.958;2023-07-13T02:10:03;24.45;;;16.13;;
22334;SDS011;11335;43.848;25.958;2023-07-13T02:12:50;22.48;;;16.55;;
22334;SDS011;11335;43.848;25.958;2023-07-13T02:15:38;19.95;;;15.48;;
22334;SDS011;11335;43.848;25.958;2023-07-13T02:18:26;26.27;;;16.40;;
22334;SDS011;11335;43.848;25.958;2023-07-13T02:21:12;22.50;;;16.33;;
22334;SDS011;11335;43.848;25.958;2023-07-13T02:23:57;26.48;;;16.33;;
22334;SDS011;11335;43.848;25.958;2023-07-13T02:26:43;20.83;;;15.98;;
22334;SDS011;11335;43.848;25.958;2023-07-13T02:29:29;22.90;;;15.70;;
22334;SDS011;11335;43.848;25.958;2023-07-13T02:32:15;24.55;;;15.55;;
22334;SDS011;11335;43.848;25.958;2023-07-13T02:35:01;23.17;;;15.07;;
22334;SDS011;11335;43.848;25.958;2023-07-13T02:37:47;22.60;;;15.13;;
22334;SDS011;11335;43.848;25.958;2023-07-13T02:40:33;21.08;;;15.45;;
22334;SDS011;11335;43.848;25.958;2023-07-13T02:43:21;22.27;;;15.07;;
22334;SDS011;11335;43.848;25.958;2023-07-13T02:46:07;31.67;;;16.00;;
22334;SDS011;11335;43.848;25.958;2023-07-13T02:48:53;21.88;;;15.32;;
22334;SDS011;11335;43.848;25.958;2023-07-13T02:51:38;24.55;;;15.10;;
22334;SDS011;11335;43.848;25.958;2023-07-13T02:54:24;20.90;;;15.70;;
22334;SDS011;11335;43.848;25.958;2023-07-13T02:57:10;24.50;;;15.77;;
22334;SDS011;11335;43.848;25.958;2023-07-13T02:59:56;19.75;;;15.25;;
22334;SDS011;11335;43.848;25.958;2023-07-13T03:02:42;28.65;;;15.65;;
22334;SDS011;11335;43.848;25.958;2023-07-13T03:05:27;22.80;;;15.48;;
22334;SDS011;11335;43.848;25.958;2023-07-13T03:08:13;18.67;;;13.95;;
22334;SDS011;11335;43.848;25.958;2023-07-13T03:11:02;20.15;;;14.40;;
22334;SDS011;11335;43.848;25.958;2023-07-13T03:13:50;20.25;;;14.30;;
22334;SDS011;11335;43.848;25.958;2023-07-13T03:16:37;20.38;;;14.32;;
22334;SDS011;11335;43.848;25.958;2023-07-13T03:19:22;20.27;;;14.80;;
22334;SDS011;11335;43.848;25.958;2023-07-13T03:22:08;21.98;;;13.50;;
22334;SDS011;11335;43.848;25.958;2023-07-13T03:24:54;19.80;;;13.98;;
22334;SDS011;11335;43.848;25.958;2023-07-13T03:27:40;21.13;;;14.68;;
22334;SDS011;11335;43.848;25.958;2023-07-13T03:30:26;17.38;;;13.82;;
22334;SDS011;11335;43.848;25.958;2023-07-13T03:33:12;19.27;;;13.85;;
22334;SDS011;11335;43.848;25.958;2023-07-13T03:35:58;19.73;;;14.70;;
22334;SDS011;11335;43.848;25.958;2023-07-13T03:38:43;20.27;;;13.95;;
22334;SDS011;11335;43.848;25.958;2023-07-13T03:41:29;18.83;;;14.20;;
22334;SDS011;11335;43.848;25.958;2023-07-13T03:44:17;18.63;;;14.40;;
22334;SDS011;11335;43.848;25.958;2023-07-13T03:47:03;19.98;;;14.38;;
22334;SDS011;11335;43.848;25.958;2023-07-13T03:49:51;19.70;;;13.98;;
22334;SDS011;11335;43.848;25.958;2023-07-13T03:52:37;22.50;;;14.43;;
22334;SDS011;11335;43.848;25.958;2023-07-13T03:55:22;21.90;;;14.18;;
22334;SDS011;11335;43.848;25.958;2023-07-13T04:01:20;19.70;;;15.00;;
22334;SDS011;11335;43.848;25.958;2023-07-13T04:04:07;20.52;;;14.10;;
22334;SDS011;11335;43.848;25.958;2023-07-13T04:06:53;20.75;;;14.13;;
22334;SDS011;11335;43.848;25.958;2023-07-13T04:09:39;21.58;;;14.38;;
22334;SDS011;11335;43.848;25.958;2023-07-13T04:12:25;18.40;;;14.32;;
22334;SDS011;11335;43.848;25.958;2023-07-13T04:15:10;20.30;;;14.07;;
22334;SDS011;11335;43.848;25.958;2023-07-13T04:17:56;21.58;;;14.18;;
22334;SDS011;11335;43.848;25.958;2023-07-13T04:20:42;20.33;;;14.75;;
22334;SDS011;11335;43.848;25.958;2023-07-13T04:23:28;21.58;;;14.70;;
22334;SDS011;11335;43.848;25.958;2023-07-13T04:26:13;22.13;;;14.63;;
22334;SDS011;11335;43.848;25.958;2023-07-13T04:28:59;20.30;;;14.20;;
22334;SDS011;11335;43.848;25.958;2023-07-13T04:31:45;22.48;;;15.05;;
22334;SDS011;11335;43.848;25.958;2023-07-13T04:34:30;18.83;;;14.70;;
22334;SDS011;11335;43.848;25.958;2023-07-13T04:37:16;19.02;;;14.73;;
22334;SDS011;11335;43.848;25.958;2023-07-13T04:40:02;20.45;;;13.50;;
22334;SDS011;11335;43.848;25.958;2023-07-13T04:42:49;20.48;;;14.20;;
22334;SDS011;11335;43.848;25.958;2023-07-13T04:45:34;23.30;;;15.48;;
22334;SDS011;11335;43.848;25.958;2023-07-13T04:48:20;21.15;;;15.45;;
22334;SDS011;11335;43.848;25.958;2023-07-13T04:51:06;21.00;;;14.10;;
22334;SDS011;11335;43.848;25.958;2023-07-13T04:53:52;21.05;;;14.55;;
22334;SDS011;11335;43.848;25.958;2023-07-13T04:56:38;20.20;;;14.30;;
22334;SDS011;11335;43.848;25.958;2023-07-13T04:59:24;22.52;;;15.57;;
22334;SDS011;11335;43.848;25.958;2023-07-13T05:02:10;22.42;;;14.27;;
22334;SDS011;11335;43.848;25.958;2023-07-13T05:04:55;23.42;;;15.13;;
22334;SDS011;11335;43.848;25.958;2023-07-13T05:07:41;19.70;;;14.18;;
22334;SDS011;11335;43.848;25.958;2023-07-13T05:10:27;24.08;;;15.13;;
22334;SDS011;11335;43.848;25.958;2023-07-13T05:13:12;22.10;;;14.65;;
22334;SDS011;11335;43.848;25.958;2023-07-13T05:15:59;21.52;;;14.98;;
22334;SDS011;11335;43.848;25.958;2023-07-13T05:18:47;28.25;;;14.98;;
22334;SDS011;11335;43.848;25.958;2023-07-13T05:21:32;22.45;;;15.38;;
22334;SDS011;11335;43.848;25.958;2023-07-13T05:24:18;23.35;;;14.73;;
22334;SDS011;11335;43.848;25.958;2023-07-13T05:27:04;20.00;;;14.13;;
22334;SDS011;11335;43.848;25.958;2023-07-13T05:29:50;23.45;;;15.43;;
22334;SDS011;11335;43.848;25.958;2023-07-13T05:32:36;19.75;;;14.40;;
22334;SDS011;11335;43.848;25.958;2023-07-13T05:35:22;19.95;;;15.13;;
22334;SDS011;11335;43.848;25.958;2023-07-13T05:38:08;22.13;;;14.55;;
22334;SDS011;11335;43.848;25.958;2023-07-13T05:40:54;26.42;;;16.13;;
22334;SDS011;11335;43.848;25.958;2023-07-13T05:43:41;20.60;;;14.63;;
22334;SDS011;11335;43.848;25.958;2023-07-13T05:46:27;33.00;;;16.40;;
22334;SDS011;11335;43.848;25.958;2023-07-13T05:49:13;23.65;;;15.48;;
22334;SDS011;11335;43.848;25.958;2023-07-13T05:51:59;22.52;;;14.88;;
22334;SDS011;11335;43.848;25.958;2023-07-13T05:54:45;24.20;;;15.30;;
22334;SDS011;11335;43.848;25.958;2023-07-13T05:57:30;19.95;;;14.80;;
22334;SDS011;11335;43.848;25.958;2023-07-13T06:00:17;21.55;;;14.57;;
22334;SDS011;11335;43.848;25.958;2023-07-13T06:03:02;20.55;;;14.00;;
22334;SDS011;11335;43.848;25.958;2023-07-13T06:05:48;22.45;;;13.73;;
22334;SDS011;11335;43.848;25.958;2023-07-13T06:08:34;20.67;;;14.63;;
22334;SDS011;11335;43.848;25.958;2023-07-13T06:11:21;24.23;;;14.98;;
22334;SDS011;11335;43.848;25.958;2023-07-13T06:14:08;21.75;;;15.65;;
22334;SDS011;11335;43.848;25.958;2023-07-13T06:16:55;15.73;;;13.02;;
22334;SDS011;11335;43.848;25.958;2023-07-13T06:19:40;17.25;;;13.32;;
22334;SDS011;11335;43.848;25.958;2023-07-13T06:22:26;15.82;;;13.23;;
22334;SDS011;11335;43.848;25.958;2023-07-13T06:25:12;16.38;;;12.82;;
22334;SDS011;11335;43.848;25.958;2023-07-13T06:27:57;17.42;;;12.60;;
22334;SDS011;11335;43.848;25.958;2023-07-13T06:30:43;18.67;;;12.82;;
22334;SDS011;11335;43.848;25.958;2023-07-13T06:33:29;18.65;;;12.52;;
22334;SDS011;11335;43.848;25.958;2023-07-13T06:36:15;16.88;;;12.65;;
22334;SDS011;11335;43.848;25.958;2023-07-13T06:39:00;14.10;;;11.43;;
22334;SDS011;11335;43.848;25.958;2023-07-13T06:41:46;15.70;;;11.45;;
22334;SDS011;11335;43.848;25.958;2023-07-13T06:44:32;15.40;;;11.65;;
22334;SDS011;11335;43.848;25.958;2023-07-13T06:47:17;14.85;;;11.88;;
22334;SDS011;11335;43.848;25.958;2023-07-13T06:50:03;15.93;;;12.45;;
22334;SDS011;11335;43.848;25.958;2023-07-13T06:52:49;14.68;;;11.75;;
22334;SDS011;11335;43.848;25.958;2023-07-13T06:55:35;21.55;;;12.55;;
22334;SDS011;11335;43.848;25.958;2023-07-13T06:58:21;16.15;;;11.93;;
22334;SDS011;11335;43.848;25.958;2023-07-13T07:01:08;15.30;;;11.77;;
22334;SDS011;11335;43.848;25.958;2023-07-13T07:03:54;22.73;;;12.05;;
22334;SDS011;11335;43.848;25.958;2023-07-13T07:06:40;23.60;;;11.65;;
22334;SDS011;11335;43.848;25.958;2023-07-13T07:09:26;14.43;;;11.65;;
22334;SDS011;11335;43.848;25.958;2023-07-13T07:12:11;14.75;;;12.23;;
22334;SDS011;11335;43.848;25.958;2023-07-13T07:14:57;15.48;;;12.05;;
22334;SDS011;11335;43.848;25.958;2023-07-13T07:17:43;15.10;;;11.80;;
22334;SDS011;11335;43.848;25.958;2023-07-13T07:20:29;14.80;;;11.85;;
22334;SDS011;11335;43.848;25.958;2023-07-13T07:23:16;17.05;;;12.20;;
22334;SDS011;11335;43.848;25.958;2023-07-13T07:26:02;17.35;;;12.52;;
22334;SDS011;11335;43.848;25.958;2023-07-13T07:28:47;19.33;;;12.80;;
22334;SDS011;11335;43.848;25.958;2023-07-13T07:31:33;16.23;;;12.40;;
22334;SDS011;11335;43.848;25.958;2023-07-13T07:34:19;23.35;;;13.07;;
22334;SDS011;11335;43.848;25.958;2023-07-13T07:37:05;18.08;;;13.02;;
22334;SDS011;11335;43.848;25.958;2023-07-13T07:39:51;22.02;;;13.05;;
22334;SDS011;11335;43.848;25.958;2023-07-13T07:42:37;20.13;;;12.20;;
22334;SDS011;11335;43.848;25.958;2023-07-13T07:45:23;13.68;;;11.68;;
22334;SDS011;11335;43.848;25.958;2023-07-13T07:48:08;20.63;;;12.57;;
22334;SDS011;11335;43.848;25.958;2023-07-13T07:50:54;21.85;;;12.88;;
22334;SDS011;11335;43.848;25.958;2023-07-13T07:53:40;16.52;;;12.27;;
22334;SDS011;11335;43.848;25.958;2023-07-13T07:56:27;13.45;;;11.32;;
22334;SDS011;11335;43.848;25.958;2023-07-13T07:59:13;14.20;;;12.05;;
22334;SDS011;11335;43.848;25.958;2023-07-13T08:01:58;16.88;;;11.57;;
22334;SDS011;11335;43.848;25.958;2023-07-13T08:04:44;21.75;;;12.02;;
22334;SDS011;11335;43.848;25.958;2023-07-13T08:07:30;26.40;;;12.05;;
22334;SDS011;11335;43.848;25.958;2023-07-13T08:10:16;16.55;;;11.63;;
22334;SDS011;11335;43.848;25.958;2023-07-13T08:13:02;15.30;;;11.57;;
22334;SDS011;11335;43.848;25.958;2023-07-13T08:15:48;15.35;;;11.07;;
22334;SDS011;11335;43.848;25.958;2023-07-13T08:18:35;17.52;;;11.07;;
22334;SDS011;11335;43.848;25.958;2023-07-13T08:21:20;15.60;;;11.60;;
22334;SDS011;11335;43.848;25.958;2023-07-13T08:24:07;15.32;;;11.27;;
22334;SDS011;11335;43.848;25.958;2023-07-13T08:26:53;18.98;;;11.85;;
22334;SDS011;11335;43.848;25.958;2023-07-13T08:29:39;14.77;;;12.20;;
22334;SDS011;11335;43.848;25.958;2023-07-13T08:32:24;14.77;;;11.13;;
22334;SDS011;11335;43.848;25.958;2023-07-13T08:35:10;11.27;;;9.98;;
22334;SDS011;11335;43.848;25.958;2023-07-13T08:37:56;15.70;;;11.00;;
22334;SDS011;11335;43.848;25.958;2023-07-13T08:40:42;22.63;;;11.55;;
22334;SDS011;11335;43.848;25.958;2023-07-13T08:43:30;15.07;;;10.80;;
22334;SDS011;11335;43.848;25.958;2023-07-13T08:49:21;14.50;;;10.63;;
22334;SDS011;11335;43.848;25.958;2023-07-13T08:52:11;20.08;;;10.68;;
22334;SDS011;11335;43.848;25.958;2023-07-13T08:55:17;20.98;;;11.52;;
22334;SDS011;11335;43.848;25.958;2023-07-13T08:58:10;20.58;;;12.13;;
22334;SDS011;11335;43.848;25.958;2023-07-13T09:01:00;12.88;;;10.45;;
22334;SDS011;11335;43.848;25.958;2023-07-13T09:16:06;13.43;;;9.30;;
22334;SDS011;11335;43.848;25.958;2023-07-13T09:18:53;15.68;;;9.07;;
22334;SDS011;11335;43.848;25.958;2023-07-13T09:21:44;16.58;;;9.20;;
22334;SDS011;11335;43.848;25.958;2023-07-13T09:24:38;16.30;;;9.80;;
22334;SDS011;11335;43.848;25.958;2023-07-13T09:27:42;12.20;;;9.68;;
22334;SDS011;11335;43.848;25.958;2023-07-13T09:30:38;10.52;;;8.73;;
22334;SDS011;11335;43.848;25.958;2023-07-13T09:33:31;12.40;;;8.70;;
22334;SDS011;11335;43.848;25.958;2023-07-13T09:36:22;15.75;;;9.73;;
22334;SDS011;11335;43.848;25.958;2023-07-13T09:39:14;14.25;;;9.25;;
22334;SDS011;11335;43.848;25.958;2023-07-13T09:44:59;15.85;;;8.88;;
22334;SDS011;11335;43.848;25.958;2023-07-13T09:47:53;18.10;;;9.35;;
22334;SDS011;11335;43.848;25.958;2023-07-13T09:50:45;13.55;;;9.00;;
22334;SDS011;11335;43.848;25.958;2023-07-13T09:53:31;11.02;;;9.00;;
22334;SDS011;11335;43.848;25.958;2023-07-13T09:56:20;15.73;;;8.82;;
22334;SDS011;11335;43.848;25.958;2023-07-13T09:59:19;15.52;;;9.43;;
22334;SDS011;11335;43.848;25.958;2023-07-13T10:05:16;11.43;;;8.48;;
22334;SDS011;11335;43.848;25.958;2023-07-13T10:08:01;23.13;;;9.13;;
22334;SDS011;11335;43.848;25.958;2023-07-13T10:10:51;13.40;;;9.00;;
22334;SDS011;11335;43.848;25.958;2023-07-13T10:13:51;14.70;;;9.23;;
22334;SDS011;11335;43.848;25.958;2023-07-13T10:16:38;15.13;;;8.25;;
22334;SDS011;11335;43.848;25.958;2023-07-13T10:19:32;11.88;;;8.68;;
22334;SDS011;11335;43.848;25.958;2023-07-13T10:25:15;12.98;;;8.30;;
22334;SDS011;11335;43.848;25.958;2023-07-13T10:28:28;14.70;;;9.30;;
22334;SDS011;11335;43.848;25.958;2023-07-13T10:31:18;13.95;;;8.45;;
22334;SDS011;11335;43.848;25.958;2023-07-13T10:34:05;16.73;;;8.52;;
22334;SDS011;11335;43.848;25.958;2023-07-13T10:36:53;15.82;;;9.02;;
22334;SDS011;11335;43.848;25.958;2023-07-13T10:39:39;17.80;;;8.57;;
22334;SDS011;11335;43.848;25.958;2023-07-13T10:42:38;12.57;;;8.25;;
22334;SDS011;11335;43.848;25.958;2023-07-13T10:45:27;15.18;;;8.27;;
22334;SDS011;11335;43.848;25.958;2023-07-13T10:48:16;12.65;;;8.60;;
22334;SDS011;11335;43.848;25.958;2023-07-13T10:51:03;10.27;;;8.50;;
22334;SDS011;11335;43.848;25.958;2023-07-13T10:54:11;11.32;;;8.18;;
22334;SDS011;11335;43.848;25.958;2023-07-13T10:57:23;14.73;;;8.25;;
22334;SDS011;11335;43.848;25.958;2023-07-13T11:00:15;10.40;;;8.40;;
22334;SDS011;11335;43.848;25.958;2023-07-13T11:03:03;13.65;;;8.50;;
22334;SDS011;11335;43.848;25.958;2023-07-13T11:05:49;12.32;;;7.65;;
22334;SDS011;11335;43.848;25.958;2023-07-13T11:08:38;17.42;;;8.43;;
22334;SDS011;11335;43.848;25.958;2023-07-13T11:11:38;11.88;;;7.95;;
22334;SDS011;11335;43.848;25.958;2023-07-13T11:14:28;16.63;;;8.32;;
22334;SDS011;11335;43.848;25.958;2023-07-13T11:17:23;12.50;;;7.85;;
22334;SDS011;11335;43.848;25.958;2023-07-13T11:26:01;16.90;;;7.75;;
22334;SDS011;11335;43.848;25.958;2023-07-13T11:28:48;21.10;;;7.65;;
22334;SDS011;11335;43.848;25.958;2023-07-13T11:31:34;11.88;;;7.13;;
22334;SDS011;11335;43.848;25.958;2023-07-13T11:34:41;13.75;;;7.90;;
22334;SDS011;11335;43.848;25.958;2023-07-13T11:37:26;18.17;;;7.70;;
22334;SDS011;11335;43.848;25.958;2023-07-13T11:40:15;13.23;;;7.45;;
22334;SDS011;11335;43.848;25.958;2023-07-13T11:43:01;13.70;;;7.30;;
22334;SDS011;11335;43.848;25.958;2023-07-13T11:45:47;12.73;;;7.03;;
22334;SDS011;11335;43.848;25.958;2023-07-13T11:48:33;8.15;;;6.55;;
22334;SDS011;11335;43.848;25.958;2023-07-13T11:54:31;9.32;;;6.97;;
22334;SDS011;11335;43.848;25.958;2023-07-13T11:57:28;12.15;;;6.78;;
22334;SDS011;11335;43.848;25.958;2023-07-13T12:00:20;11.88;;;7.28;;
22334;SDS011;11335;43.848;25.958;2023-07-13T12:03:10;11.80;;;6.82;;
22334;SDS011;11335;43.848;25.958;2023-07-13T12:06:05;12.15;;;6.75;;
22334;SDS011;11335;43.848;25.958;2023-07-13T12:09:12;14.27;;;6.80;;
22334;SDS011;11335;43.848;25.958;2023-07-13T12:12:01;12.50;;;7.00;;
22334;SDS011;11335;43.848;25.958;2023-07-13T12:14:46;10.90;;;6.47;;
22334;SDS011;11335;43.848;25.958;2023-07-13T12:17:36;17.20;;;6.38;;
22334;SDS011;11335;43.848;25.958;2023-07-13T12:20:26;14.52;;;6.40;;
22334;SDS011;11335;43.848;25.958;2023-07-13T12:23:23;13.02;;;6.50;;
22334;SDS011;11335;43.848;25.958;2023-07-13T12:26:15;14.48;;;6.35;;
22334;SDS011;11335;43.848;25.958;2023-07-13T12:29:04;16.05;;;6.90;;
22334;SDS011;11335;43.848;25.958;2023-07-13T12:31:51;16.58;;;6.50;;
22334;SDS011;11335;43.848;25.958;2023-07-13T12:34:50;13.68;;;6.57;;
22334;SDS011;11335;43.848;25.958;2023-07-13T12:37:37;13.35;;;6.20;;
22334;SDS011;11335;43.848;25.958;2023-07-13T12:40:31;16.15;;;6.38;;
22334;SDS011;11335;43.848;25.958;2023-07-13T12:43:20;12.15;;;6.40;;
22334;SDS011;11335;43.848;25.958;2023-07-13T12:46:18;11.90;;;6.03;;
22334;SDS011;11335;43.848;25.958;2023-07-13T12:49:06;16.35;;;5.60;;
22334;SDS011;11335;43.848;25.958;2023-07-13T12:51:57;12.52;;;5.68;;
22334;SDS011;11335;43.848;25.958;2023-07-13T12:54:58;15.23;;;5.40;;
22334;SDS011;11335;43.848;25.958;2023-07-13T13:00:37;12.95;;;5.78;;
22334;SDS011;11335;43.848;25.958;2023-07-13T13:03:40;15.80;;;5.70;;
22334;SDS011;11335;43.848;25.958;2023-07-13T13:06:37;15.52;;;5.78;;
22334;SDS011;11335;43.848;25.958;2023-07-13T13:09:22;21.13;;;5.85;;
22334;SDS011;11335;43.848;25.958;2023-07-13T13:12:09;9.38;;;5.40;;
22334;SDS011;11335;43.848;25.958;2023-07-13T13:14:55;21.95;;;6.20;;
22334;SDS011;11335;43.848;25.958;2023-07-13T13:17:42;15.73;;;5.70;;
22334;SDS011;11335;43.848;25.958;2023-07-13T13:20:27;12.68;;;6.18;;
22334;SDS011;11335;43.848;25.958;2023-07-13T13:23:14;10.60;;;5.70;;
22334;SDS011;11335;43.848;25.958;2023-07-13T13:26:02;14.48;;;6.22;;
22334;SDS011;11335;43.848;25.958;2023-07-13T13:28:50;13.30;;;5.78;;
22334;SDS011;11335;43.848;25.958;2023-07-13T13:31:36;13.95;;;6.10;;
22334;SDS011;11335;43.848;25.958;2023-07-13T13:34:22;12.52;;;6.15;;
22334;SDS011;11335;43.848;25.958;2023-07-13T13:37:16;12.05;;;6.18;;
22334;SDS011;11335;43.848;25.958;2023-07-13T13:40:22;12.02;;;5.80;;
22334;SDS011;11335;43.848;25.958;2023-07-13T13:43:13;10.35;;;5.72;;
22334;SDS011;11335;43.848;25.958;2023-07-13T13:46:08;11.27;;;5.85;;
22334;SDS011;11335;43.848;25.958;2023-07-13T13:49:14;14.35;;;6.35;;
22334;SDS011;11335;43.848;25.958;2023-07-13T13:52:01;16.60;;;6.70;;
22334;SDS011;11335;43.848;25.958;2023-07-13T13:54:47;13.27;;;6.63;;
22334;SDS011;11335;43.848;25.958;2023-07-13T13:57:33;11.90;;;6.25;;
22334;SDS011;11335;43.848;25.958;2023-07-13T14:00:20;16.95;;;6.10;;
22334;SDS011;11335;43.848;25.958;2023-07-13T14:03:08;14.10;;;6.15;;
22334;SDS011;11335;43.848;25.958;2023-07-13T14:06:10;12.75;;;5.93;;
22334;SDS011;11335;43.848;25.958;2023-07-13T14:08:58;15.27;;;7.13;;
22334;SDS011;11335;43.848;25.958;2023-07-13T14:11:45;13.23;;;6.50;;
22334;SDS011;11335;43.848;25.958;2023-07-13T14:14:33;16.83;;;6.75;;
22334;SDS011;11335;43.848;25.958;2023-07-13T14:17:23;12.88;;;6.00;;
22334;SDS011;11335;43.848;25.958;2023-07-13T14:20:12;9.48;;;5.95;;
22334;SDS011;11335;43.848;25.958;2023-07-13T14:22:58;13.02;;;6.00;;
22334;SDS011;11335;43.848;25.958;2023-07-13T14:25:47;11.55;;;6.05;;
22334;SDS011;11335;43.848;25.958;2023-07-13T14:28:41;20.40;;;5.85;;
22334;SDS011;11335;43.848;25.958;2023-07-13T14:31:28;14.93;;;6.05;;
22334;SDS011;11335;43.848;25.958;2023-07-13T14:34:14;15.23;;;6.05;;
22334;SDS011;11335;43.848;25.958;2023-07-13T14:37:00;14.77;;;6.30;;
22334;SDS011;11335;43.848;25.958;2023-07-13T14:39:45;19.40;;;6.43;;
22334;SDS011;11335;43.848;25.958;2023-07-13T14:42:34;11.82;;;6.35;;
22334;SDS011;11335;43.848;25.958;2023-07-13T14:45:20;17.98;;;6.15;;
22334;SDS011;11335;43.848;25.958;2023-07-13T14:48:20;11.02;;;6.20;;
22334;SDS011;11335;43.848;25.958;2023-07-13T14:51:08;14.93;;;5.80;;
22334;SDS011;11335;43.848;25.958;2023-07-13T14:53:55;15.82;;;6.18;;
22334;SDS011;11335;43.848;25.958;2023-07-13T14:56:41;15.07;;;5.80;;
22334;SDS011;11335;43.848;25.958;2023-07-13T14:59:27;11.40;;;5.75;;
22334;SDS011;11335;43.848;25.958;2023-07-13T15:04:58;13.00;;;5.68;;
22334;SDS011;11335;43.848;25.958;2023-07-13T15:07:44;12.70;;;6.10;;
22334;SDS011;11335;43.848;25.958;2023-07-13T15:10:31;25.50;;;6.07;;
22334;SDS011;11335;43.848;25.958;2023-07-13T15:13:19;17.73;;;6.70;;
22334;SDS011;11335;43.848;25.958;2023-07-13T15:16:16;8.77;;;5.88;;
22334;SDS011;11335;43.848;25.958;2023-07-13T15:19:08;12.43;;;5.95;;
22334;SDS011;11335;43.848;25.958;2023-07-13T15:21:55;14.63;;;6.32;;
22334;SDS011;11335;43.848;25.958;2023-07-13T15:24:42;8.55;;;5.68;;
22334;SDS011;11335;43.848;25.958;2023-07-13T15:27:28;11.45;;;5.78;;
22334;SDS011;11335;43.848;25.958;2023-07-13T15:30:14;12.20;;;5.70;;
22334;SDS011;11335;43.848;25.958;2023-07-13T15:33:01;8.88;;;5.32;;
22334;SDS011;11335;43.848;25.958;2023-07-13T15:35:56;14.25;;;5.75;;
22334;SDS011;11335;43.848;25.958;2023-07-13T15:38:44;8.60;;;5.53;;
22334;SDS011;11335;43.848;25.958;2023-07-13T15:41:33;10.25;;;5.93;;
22334;SDS011;11335;43.848;25.958;2023-07-13T15:44:23;15.88;;;5.78;;
22334;SDS011;11335;43.848;25.958;2023-07-13T15:47:12;11.07;;;5.47;;
22334;SDS011;11335;43.848;25.958;2023-07-13T15:49:59;13.00;;;6.03;;
22334;SDS011;11335;43.848;25.958;2023-07-13T15:52:47;10.68;;;5.57;;
22334;SDS011;11335;43.848;25.958;2023-07-13T15:55:36;17.40;;;5.80;;
22334;SDS011;11335;43.848;25.958;2023-07-13T15:58:24;11.75;;;5.80;;
22334;SDS011;11335;43.848;25.958;2023-07-13T16:01:11;10.65;;;5.88;;
22334;SDS011;11335;43.848;25.958;2023-07-13T16:03:58;13.93;;;5.90;;
22334;SDS011;11335;43.848;25.958;2023-07-13T16:06:44;17.65;;;5.93;;
22334;SDS011;11335;43.848;25.958;2023-07-13T16:09:30;15.63;;;6.35;;
22334;SDS011;11335;43.848;25.958;2023-07-13T16:12:16;15.27;;;5.80;;
22334;SDS011;11335;43.848;25.958;2023-07-13T16:15:02;18.70;;;6.53;;
22334;SDS011;11335;43.848;25.958;2023-07-13T16:17:48;17.45;;;6.22;;
22334;SDS011;11335;43.848;25.958;2023-07-13T16:20:34;20.75;;;6.45;;
22334;SDS011;11335;43.848;25.958;2023-07-13T16:23:20;15.88;;;6.50;;
22334;SDS011;11335;43.848;25.958;2023-07-13T16:26:15;19.30;;;6.47;;
22334;SDS011;11335;43.848;25.958;2023-07-13T16:29:13;12.98;;;6.18;;
22334;SDS011;11335;43.848;25.958;2023-07-13T16:32:08;18.38;;;5.68;;
22334;SDS011;11335;43.848;25.958;2023-07-13T16:34:56;12.48;;;5.93;;
22334;SDS011;11335;43.848;25.958;2023-07-13T16:37:42;13.68;;;5.95;;
22334;SDS011;11335;43.848;25.958;2023-07-13T16:40:29;15.63;;;6.38;;
22334;SDS011;11335;43.848;25.958;2023-07-13T16:43:17;12.55;;;6.35;;
22334;SDS011;11335;43.848;25.958;2023-07-13T16:46:09;21.45;;;6.70;;
22334;SDS011;11335;43.848;25.958;2023-07-13T16:48:59;13.20;;;6.43;;
22334;SDS011;11335;43.848;25.958;2023-07-13T16:51:46;14.25;;;6.82;;
22334;SDS011;11335;43.848;25.958;2023-07-13T16:54:33;13.90;;;6.43;;
22334;SDS011;11335;43.848;25.958;2023-07-13T16:57:21;10.75;;;5.97;;
22334;SDS011;11335;43.848;25.958;2023-07-13T17:00:21;12.43;;;6.07;;